Terminal Aerodrome Forecast
Issued by NWS

Home | Current Version | Previous Version | Text Only | Print | Product List | Glossary On
Versions: 1 2 3 4 5 6 7 8 9 10 11 12 13 14
000
FTUS46 KSTO 281100
TAFRDD
TAF
KRDD 281138Z 2812/2912 VRB04KT 4SM BR BKN200
      TEMPO 2812/2816 1SM BR
     FM281600 18006KT P6SM VCSH BKN150
     FM281900 19005KT 6SM -RA OVC050
     FM290200 18004KT P6SM -SHRA OVC020=

USA.gov is the U.S. government's official web portal to all federal, state and local government web resources and services.